createdAt,value
2018-04-23T00:00:20.078Z,10.56
2018-04-23T00:06:10.940Z,12.84
2018-04-23T00:12:01.789Z,10.24
2018-04-23T00:17:52.640Z,12.18
2018-04-23T00:23:43.461Z,11.88
2018-04-23T00:29:34.331Z,11.75
2018-04-23T00:35:25.169Z,11.49
2018-04-23T00:41:15.970Z,12.26
2018-04-23T00:47:06.843Z,11.39
2018-04-23T00:52:57.707Z,10.94
2018-04-23T00:58:48.548Z,11.04
2018-04-23T01:04:39.365Z,10.01
2018-04-23T01:10:30.174Z,9.98
2018-04-23T01:16:21.026Z,9.47
2018-04-23T01:22:11.884Z,10.13
2018-04-23T01:28:02.699Z,9.73
2018-04-23T01:33:53.538Z,10.72
2018-04-23T01:39:44.361Z,10.56
2018-04-23T01:45:35.203Z,10.9
2018-04-23T01:51:26.058Z,11.55
2018-04-23T01:57:16.834Z,12.26
2018-04-23T02:03:07.700Z,12.25
2018-04-23T02:08:58.525Z,11.88
2018-04-23T02:14:49.569Z,12.59
2018-04-23T02:20:40.140Z,12.68
2018-04-23T02:26:30.998Z,12.87
2018-04-23T02:32:21.851Z,12.7
2018-04-23T02:38:12.671Z,13.36
2018-04-23T02:44:03.472Z,13.87
2018-04-23T02:49:54.312Z,14.49
2018-04-23T02:55:45.121Z,14.75
2018-04-23T03:01:36.014Z,15.19
2018-04-23T03:07:26.774Z,16.24
2018-04-23T03:13:17.634Z,14.46
2018-04-23T03:19:08.452Z,15.42
2018-04-23T03:24:59.320Z,15.73
2018-04-23T03:30:50.157Z,14.98
2018-04-23T03:36:40.948Z,16.17
2018-04-23T03:42:31.777Z,15.25
2018-04-23T03:48:22.579Z,14.92
2018-04-23T03:54:13.393Z,16.55
2018-04-23T04:00:04.251Z,15.16
2018-04-23T04:05:55.069Z,16.24
2018-04-23T04:11:45.872Z,15.57
2018-04-23T04:17:36.689Z,16.11
2018-04-23T04:23:27.621Z,16.09
2018-04-23T04:29:18.314Z,14.33
2018-04-23T04:35:09.140Z,14.37
2018-04-23T04:40:59.999Z,14.66
2018-04-23T04:46:50.789Z,14.8
2018-04-23T04:52:41.633Z,14.21
2018-04-23T04:58:32.442Z,14.44
2018-04-23T05:04:23.315Z,14.42
2018-04-23T05:10:14.087Z,14.3
2018-04-23T05:16:04.965Z,13.88
2018-04-23T05:21:55.726Z,15.67
2018-04-23T05:27:46.531Z,14.22
2018-04-23T05:33:37.365Z,15.45
2018-04-23T05:39:28.181Z,14.2
2018-04-23T05:45:19.046Z,15.19
2018-04-23T05:51:09.826Z,14.93
2018-04-23T05:57:00.754Z,15.76
2018-04-23T06:02:51.535Z,16.3
2018-04-23T06:08:42.296Z,16.55
2018-04-23T06:14:33.171Z,16.29
2018-04-23T06:20:24.025Z,16.09
2018-04-23T06:26:14.818Z,15.43
2018-04-23T06:32:05.636Z,14.55
2018-04-23T06:37:56.494Z,16.6
2018-04-23T06:43:47.327Z,16.66
2018-04-23T06:49:38.141Z,14.43
2018-04-23T06:55:29.015Z,15.45
2018-04-23T07:01:19.864Z,14.98
2018-04-23T07:07:10.692Z,15.8
2018-04-23T07:13:01.570Z,16.09
2018-04-23T07:18:52.404Z,16.64
2018-04-23T07:24:43.196Z,16.69
2018-04-23T07:30:34.081Z,18.39
2018-04-23T07:36:24.936Z,20.86
2018-04-23T07:42:15.752Z,21.15
2018-04-23T07:48:06.618Z,22.84
2018-04-23T07:53:57.534Z,21.56
2018-04-23T07:59:48.339Z,19.09
2018-04-23T08:05:39.213Z,18.84
2018-04-23T08:11:30.034Z,18.8
2018-04-23T08:17:20.925Z,18.7
2018-04-23T08:23:11.759Z,16.58
2018-04-23T08:29:02.651Z,14.55
2018-04-23T08:34:53.545Z,15.77
2018-04-23T08:40:44.372Z,17.1
2018-04-23T08:46:35.267Z,15.55
2018-04-23T08:52:26.178Z,15.31
2018-04-23T08:58:17.047Z,14.67
2018-04-23T09:04:08.016Z,13.04
2018-04-23T09:09:58.847Z,13.77
2018-04-23T09:15:49.720Z,13.13
2018-04-23T09:21:40.613Z,12.86
2018-04-23T09:27:31.536Z,12.25
2018-04-23T09:33:22.474Z,12.05
2018-04-23T09:39:13.296Z,13.65
2018-04-23T09:45:04.132Z,13.23
2018-04-23T09:50:54.919Z,12.48
2018-04-23T09:56:45.741Z,12.15
2018-04-23T10:02:36.569Z,12.16
2018-04-23T10:08:27.442Z,12.02
2018-04-23T10:14:18.322Z,10.43
2018-04-23T10:20:09.069Z,12.8
2018-04-23T10:25:59.921Z,10.66
2018-04-23T10:31:50.783Z,10.98
2018-04-23T10:37:41.634Z,9.75
2018-04-23T10:43:32.482Z,10.98
2018-04-23T10:49:23.399Z,10.39
2018-04-23T10:55:14.281Z,11.04
2018-04-23T11:01:05.079Z,10
2018-04-23T11:06:55.956Z,10.05
2018-04-23T11:12:46.814Z,7.87
2018-04-23T11:18:37.727Z,8.49
2018-04-23T11:24:28.623Z,9.77
2018-04-23T11:30:19.458Z,10.25
2018-04-23T11:36:10.259Z,10.56
2018-04-23T11:42:01.112Z,10.6
2018-04-23T11:47:52.020Z,9.86
2018-04-23T11:53:42.855Z,9.35
2018-04-23T11:59:33.752Z,10.26
2018-04-23T12:05:24.561Z,9.55
2018-04-23T12:11:15.421Z,8.95
2018-04-23T12:17:06.270Z,8.61
2018-04-23T12:22:57.150Z,7.6
2018-04-23T12:28:48.061Z,7.43
2018-04-23T12:34:38.907Z,6.96
2018-04-23T12:40:29.798Z,6.79
2018-04-23T12:46:20.683Z,6.82
2018-04-23T12:52:11.604Z,5.53
2018-04-23T12:58:02.442Z,4.57
2018-04-23T13:03:53.324Z,4.71
2018-04-23T13:09:44.230Z,4.31
2018-04-23T13:15:35.062Z,5.33
2018-04-23T13:21:25.945Z,4.84
2018-04-23T13:27:16.775Z,3.88
2018-04-23T13:33:07.699Z,4.38
2018-04-23T13:38:58.515Z,4.1
2018-04-23T13:44:49.398Z,4.39
2018-04-23T13:50:40.327Z,3.34
2018-04-23T13:56:31.146Z,3.82
2018-04-23T14:02:22.013Z,3.66
2018-04-23T14:08:12.890Z,3.87
2018-04-23T14:14:03.815Z,3.25
2018-04-23T14:19:54.657Z,3.23
2018-04-23T14:25:45.572Z,3.23
2018-04-23T14:31:36.437Z,3.58
2018-04-23T14:37:27.284Z,3.07
2018-04-23T14:43:18.200Z,3.08
2018-04-23T14:49:09.040Z,2.84
2018-04-23T14:54:59.911Z,3.79
2018-04-23T15:00:50.791Z,2.66
2018-04-23T15:06:41.678Z,2.91
2018-04-23T15:12:32.563Z,2.94
2018-04-23T15:18:23.439Z,2.39
2018-04-23T15:24:14.384Z,2.86
2018-04-23T15:30:05.223Z,3.22
2018-04-23T15:35:56.069Z,2.74
2018-04-23T15:41:46.985Z,2.79
2018-04-23T15:47:37.812Z,3.23
2018-04-23T15:53:28.712Z,3.61
2018-04-23T15:59:19.535Z,3.17
2018-04-23T16:05:10.403Z,3.51
2018-04-23T16:11:01.302Z,4.85
2018-04-23T16:16:52.132Z,3.66
2018-04-23T16:22:42.961Z,4.25
2018-04-23T16:28:33.791Z,4.53
2018-04-23T16:34:24.671Z,3.71
2018-04-23T16:40:15.487Z,3.59
2018-04-23T16:46:06.322Z,3.79
2018-04-23T16:51:57.145Z,4.05
2018-04-23T16:57:47.965Z,4.19
2018-04-23T17:03:38.820Z,4.38
2018-04-23T17:09:29.611Z,4.06
2018-04-23T17:15:20.444Z,4.65
2018-04-23T17:21:11.414Z,4.43
2018-04-23T17:27:02.272Z,5.02
2018-04-23T17:32:53.173Z,4.3
2018-04-23T17:38:44.115Z,4.29
2018-04-23T17:44:35.080Z,4.04
2018-04-23T17:50:25.919Z,4.25
2018-04-23T17:56:16.820Z,4.5
2018-04-23T18:02:07.764Z,4.3
2018-04-23T18:07:58.650Z,4.73
2018-04-23T18:13:49.554Z,4.68
2018-04-23T18:19:40.422Z,5.44
2018-04-23T18:25:31.306Z,5.11
2018-04-23T18:31:22.312Z,5.27
2018-04-23T18:37:13.142Z,5.85
2018-04-23T18:43:04.003Z,5.66
2018-04-23T18:48:54.863Z,5.55
2018-04-23T18:54:45.751Z,6.22
2018-04-23T19:00:36.633Z,6.26
2018-04-23T19:06:27.528Z,5.82
2018-04-23T19:12:18.395Z,6.86
2018-04-23T19:18:09.274Z,5.9
2018-04-23T19:24:00.165Z,6.49
2018-04-23T19:29:51.019Z,6.88
2018-04-23T19:35:41.920Z,6.96
2018-04-23T19:41:32.823Z,7.2
2018-04-23T19:47:23.664Z,7.15
2018-04-23T19:53:14.542Z,7.43
2018-04-23T19:59:05.435Z,7.57
2018-04-23T20:04:56.343Z,7.63
2018-04-23T20:10:47.156Z,7.72
2018-04-23T20:16:38.034Z,7.85
2018-04-23T20:22:28.924Z,7.18
2018-04-23T20:28:19.770Z,6.91
2018-04-23T20:34:10.659Z,7.73
2018-04-23T20:40:01.505Z,7.26
2018-04-23T20:45:52.367Z,7.16
2018-04-23T20:51:43.270Z,8.45
2018-04-23T20:57:34.199Z,7.49
2018-04-23T21:03:24.947Z,7.87
2018-04-23T21:09:15.823Z,8.46
2018-04-23T21:15:06.680Z,7.28
2018-04-23T21:20:57.572Z,8.08
2018-04-23T21:26:48.476Z,8.22
2018-04-23T21:32:39.336Z,8.16
2018-04-23T21:32:39.373Z,8.16
2018-04-23T21:38:30.129Z,7.64
2018-04-23T21:44:20.993Z,7.44
2018-04-23T21:50:11.802Z,8.34
2018-04-23T21:56:02.682Z,8.67
2018-04-23T22:01:53.594Z,8.42
2018-04-23T22:07:44.390Z,8.54
2018-04-23T22:13:35.247Z,8.39
2018-04-23T22:19:26.092Z,8.86
2018-04-23T22:25:17.003Z,8.72
2018-04-23T22:31:07.756Z,8.64
2018-04-23T22:36:58.640Z,10.16
2018-04-23T22:42:49.485Z,9.44
2018-04-23T22:48:40.334Z,8.44
2018-04-23T22:54:31.180Z,8.67
2018-04-23T23:00:22.048Z,8.99
2018-04-23T23:06:12.871Z,8.7
2018-04-23T23:12:03.705Z,9.27
2018-04-23T23:17:54.634Z,9.36
2018-04-23T23:23:45.398Z,10.8
2018-04-23T23:29:36.257Z,11.31
2018-04-23T23:35:27.079Z,9.36
2018-04-23T23:41:17.956Z,9.73
2018-04-23T23:47:08.830Z,9.88
2018-04-23T23:52:59.603Z,9.58
2018-04-23T23:58:50.491Z,10.16
